Flight Track Log - Related Links

Times and Time Zones

All times are in EDT time to prevent confusion due to time zone crossing. See the SWA2712 flight status page for this flight to view local times or setup timezone preferences in your user account.

Time Position Orientation Groundspeed Altitude Reporting Facility
EDT Latitude Longitude Course Direction KTS MPH feet Rate Location/Type
Sun 02:08:22 PM 39.1833 -76.7500 322° Northwest 207 238 2,100  Level Potomac TRACON
Sun 02:09:22 PM 39.2000 -76.8333 284° West 238 274 5,000 2,975 Climbing Potomac TRACON
Sun 02:10:23 PM 39.2333 -76.9167 297° West 244 281 8,100 2,465 Climbing Potomac TRACON
Sun 02:12:27 PM 39.2997 -77.1178 293° West 301 346 12,600 2,368 Climbing Washington Center
Sun 02:13:00 PM 39.3454 -77.2787 322° Northwest  Level FlightAware Approximate
Sun 02:13:28 PM 39.3378 -77.2364 293° West 335 386 15,400  Level Washington Center
Sun 02:14:28 PM 39.3797 -77.3583 294° West 356 410 17,800 2,237 Climbing Washington Center
Sun 02:15:26 PM 39.4428 -77.4728 306° West 377 434 19,800 1,983 Climbing Washington Center
Sun 02:16:26 PM 39.5139 -77.5875 309° West 392 451 21,700 1,835 Climbing Washington Center
Sun 02:17:27 PM 39.5742 -77.7158 301° West 413 475 23,500 1,767 Climbing Washington Center
Sun 02:18:35 PM 39.6472 -77.8761 301° West 411 473 25,500 1,688 Climbing Cleveland Center
Sun 02:19:35 PM 39.7067 -78.0169 299° West 431 496 27,100 1,450 Climbing Cleveland Center
Sun 02:20:35 PM 39.7683 -78.1631 299° West 447 514 28,400 1,250 Climbing Cleveland Center
Sun 02:21:35 PM 39.8278 -78.3122 297° West 459 528 29,600 1,400 Climbing Cleveland Center
Sun 02:22:35 PM 39.8931 -78.4644 299° West 469 540 31,200 1,550 Climbing Cleveland Center
Sun 02:23:35 PM 39.9564 -78.6167 299° West 469 540 32,700 1,400 Climbing Cleveland Center
Sun 02:24:35 PM 40.0194 -78.7694 298° West 475 547 34,000 1,300 Climbing Cleveland Center
Sun 02:25:35 PM 40.0842 -78.9225 299° West 475 547 35,300 1,000 Climbing Cleveland Center
Sun 02:26:35 PM 40.1447 -79.0758 297° West 475 547 36,000 350 Climbing Cleveland Center
Sun 02:27:35 PM 40.2072 -79.2267 299° West 475 547 36,000  Level Cleveland Center
Sun 02:28:35 PM 40.2650 -79.3642 299° West 475 547 36,000  Level Cleveland Center
Sun 02:29:35 PM 40.3228 -79.5183 296° West 470 541 36,000  Level Cleveland Center
Sun 02:30:35 PM 40.3783 -79.6728 295° West 465 535 36,000  Level Cleveland Center
Sun 02:31:35 PM 40.4378 -79.8275 297° West 465 535 36,000  Level Cleveland Center
Sun 02:32:35 PM 40.4950 -79.9797 296° West 465 535 36,000  Level Cleveland Center
Sun 02:33:35 PM 40.5542 -80.1569 294° West 470 541 36,000  Level Cleveland Center
Sun 02:34:35 PM 40.6089 -80.3122 295° West 470 541 36,000  Level Cleveland Center
Sun 02:35:35 PM 40.6694 -80.4653 298° West 470 541 36,000  Level Cleveland Center
Sun 02:36:35 PM 40.7217 -80.6214 294° West 470 541 36,000  Level Cleveland Center
Sun 02:37:35 PM 40.7819 -80.7750 297° West 470 541 36,000  Level Cleveland Center
Sun 02:38:35 PM 40.8381 -80.9344 295° West 470 541 36,000  Level Cleveland Center
Sun 02:39:35 PM 40.8833 -81.0775 293° West 470 541 36,000  Level Cleveland Center
Sun 02:40:35 PM 40.9386 -81.2372 295° West 470 541 36,000  Level Cleveland Center
Sun 02:41:35 PM 40.9939 -81.3947 295° West 476 548 36,000  Level Cleveland Center
Sun 02:42:35 PM 41.0550 -81.5717 295° West 481 554 36,000  Level Cleveland Center
Sun 02:43:35 PM 41.1100 -81.7350 294° West 481 554 36,000  Level Cleveland Center
Sun 02:44:35 PM 41.1708 -81.8906 297° West 481 554 36,000  Level Cleveland Center
Sun 02:45:35 PM 41.2250 -82.0519 294° West 481 554 36,000  Level Cleveland Center
Sun 02:46:35 PM 41.2789 -82.2244 293° West 495 570 36,000  Level Cleveland Center
Sun 02:47:35 PM 41.3269 -82.3667 294° West 486 559 36,000  Level Cleveland Center
Sun 02:48:35 PM 41.3806 -82.5258 294° West 475 547 36,000  Level Cleveland Center
Sun 02:49:35 PM 41.4361 -82.6881 295° West 475 547 36,000  Level Cleveland Center
Sun 02:50:35 PM 41.4892 -82.8506 294° West 475 547 36,000  Level Cleveland Center
Sun 02:51:35 PM 41.5422 -83.0133 294° West 475 547 36,000  Level Cleveland Center
Sun 02:52:35 PM 41.5972 -83.1739 295° West 482 555 36,000  Level Cleveland Center
Sun 02:53:35 PM 41.6475 -83.3342 293° West 477 549 36,000  Level Cleveland Center
Sun 02:54:35 PM 41.6997 -83.4978 293° West 482 555 36,000  Level Cleveland Center
Sun 02:55:35 PM 41.7519 -83.6617 293° West 482 555 36,000  Level Cleveland Center
Sun 02:56:35 PM 41.8094 -83.8428 293° West 482 555 36,000  Level Cleveland Center
Sun 02:57:35 PM 41.8608 -84.0069 293° West 477 549 36,000  Level Cleveland Center
Sun 02:58:35 PM 41.9142 -84.1719 294° West 477 549 36,000  Level Cleveland Center
Sun 02:59:35 PM 41.9639 -84.3114 296° West 477 549 36,000  Level Cleveland Center
Sun 03:00:54 PM 42.0306 -84.5311 292° West 464 534 36,000  Level Chicago Center
Sun 03:01:56 PM 42.0808 -84.6892 293° West 463 533 36,000  Level Chicago Center
Sun 03:02:58 PM 42.1289 -84.8500 292° West 464 534 36,000  Level Chicago Center
Sun 03:04:00 PM 42.1794 -85.0089 293° West 464 534 36,000  Level Chicago Center
Sun 03:05:02 PM 42.2272 -85.1714 292° West 466 536 36,000  Level Chicago Center
Sun 03:06:04 PM 42.2878 -85.3681 293° West 465 535 36,000  Level Chicago Center
Sun 03:07:06 PM 42.3350 -85.5314 291° West 469 540 36,000  Level Chicago Center
Sun 03:08:08 PM 42.3831 -85.6875 293° West 459 528 36,000  Level Chicago Center
Sun 03:09:10 PM 42.4303 -85.8497 292° West 463 533 36,000  Level Chicago Center
Sun 03:10:12 PM 42.4772 -86.0133 291° West 461 531 36,000  Level Chicago Center
Sun 03:11:15 PM 42.5247 -86.1764 292° West 464 534 36,000  Level Chicago Center
Sun 03:12:16 PM 42.5728 -86.3403 292° West 462 532 36,000  Level Chicago Center
Sun 03:13:18 PM 42.6203 -86.5028 292° West 463 533 36,000  Level Chicago Center
Sun 03:14:20 PM 42.6753 -86.6978 291° West 460 529 36,000  Level Chicago Center
Sun 03:15:22 PM 42.7208 -86.8614 291° West 460 529 36,000  Level Chicago Center
Sun 03:16:24 PM 42.7689 -87.0244 292° West 464 534 36,000  Level Chicago Center
Sun 03:17:26 PM 42.8161 -87.1889 291° West 468 539 36,000  Level Chicago Center
Sun 03:18:28 PM 42.8608 -87.3542 290° West 466 536 36,000  Level Chicago Center
Sun 03:19:30 PM 42.9158 -87.5478 291° West 463 533 36,000  Level Chicago Center
Sun 03:20:32 PM 42.9611 -87.7136 291° West 463 533 36,000  Level Chicago Center
Sun 03:21:34 PM 43.0067 -87.8764 291° West 460 529 36,000  Level Chicago Center
Sun 03:22:36 PM 43.0508 -88.0394 290° West 455 524 36,000  Level Chicago Center
Sun 03:23:38 PM 43.0936 -88.2039 290° West 458 527 36,000  Level Chicago Center
Sun 03:24:40 PM 43.1172 -88.3744 281° West 455 524 36,000  Level Chicago Center
Sun 03:25:42 PM 43.1189 -88.5428 271° West 441 507 36,000  Level Chicago Center
Sun 03:26:44 PM 43.1222 -88.7411 271° West 441 507 36,000  Level Chicago Center
Sun 03:27:47 PM 43.1253 -88.9128 271° West 445 512 36,000  Level Chicago Center
Sun 03:28:49 PM 43.1272 -89.0842 271° West 447 514 36,000  Level Chicago Center
Sun 03:29:51 PM 43.1294 -89.2544 271° West 447 514 36,000  Level Chicago Center
Sun 03:30:53 PM 43.1300 -89.4231 270° West 444 511 36,000  Level Chicago Center
Sun 03:31:55 PM 43.1317 -89.5936 271° West 448 516 36,000  Level Chicago Center
Sun 03:32:57 PM 43.1311 -89.7917 270° West 445 512 36,000  Level Chicago Center
Sun 03:33:59 PM 43.1331 -89.9600 271° West 442 509 36,000  Level Chicago Center
Sun 03:35:01 PM 43.1333 -90.1294 270° West 445 512 36,000 48 Level Chicago Center
Sun 03:36:03 PM 43.1333 -90.2911 270° West 442 509 36,100 581 Climbing Chicago Center
Sun 03:37:05 PM 43.1336 -90.4603 270° West 447 514 37,200 871 Climbing Chicago Center
Sun 03:38:07 PM 43.1328 -90.6611 270° West 448 516 37,900 387 Climbing Chicago Center
Sun 03:39:09 PM 43.1333 -90.8314 270° West 453 521 38,000 47 Climbing Chicago Center
Sun 03:40:14 PM 43.1325 -90.9675 270° West 453 521 38,000  Level Minneapolis Center
Sun 03:41:29 PM 43.1311 -91.2061 270° West 455 524 38,000  Level Minneapolis Center
Sun 03:42:16 PM 43.1294 -91.3739 269° West 448 516 38,000  Level Chicago Center
Sun 03:43:18 PM 43.1294 -91.5417 270° West 449 517 38,000  Level Chicago Center
Sun 03:44:20 PM 43.1269 -91.7064 269° West 443 510 38,000  Level Chicago Center
Sun 03:45:22 PM 43.1242 -91.8717 269° West 442 509 38,000  Level Chicago Center
Sun 03:46:24 PM 43.1206 -92.0717 269° West 444 511 38,000  Level Chicago Center
Sun 03:47:26 PM 43.1169 -92.2367 268° West 442 509 38,000  Level Chicago Center
Sun 03:48:28 PM 43.1139 -92.4014 269° West 440 506 38,000  Level Chicago Center
Sun 03:49:30 PM 43.1114 -92.5656 269° West 439 505 38,000  Level Chicago Center
Sun 03:50:32 PM 43.1092 -92.7272 269° West 434 499 38,000  Level Chicago Center
Sun 03:51:34 PM 43.1033 -92.9258 268° West 439 505 38,000  Level Chicago Center
Sun 03:52:36 PM 43.1003 -93.0861 269° West 431 496 38,000  Level Chicago Center
Sun 03:53:17 PM 43.0969 -93.1825 267° West 427 491 38,000  Level Minneapolis Center
Sun 03:54:19 PM 43.0933 -93.3403 268° West 421 484 38,000  Level Minneapolis Center
Sun 03:55:21 PM 43.0753 -93.5297 263° West 422 486 38,000  Level Minneapolis Center
Sun 03:56:23 PM 43.0603 -93.6883 263° West 424 488 38,000  Level Minneapolis Center
Sun 03:57:25 PM 43.0456 -93.8475 263° West 426 490 38,000  Level Minneapolis Center
Sun 03:58:27 PM 43.0303 -94.0067 263° West 427 491 38,000  Level Minneapolis Center
Sun 03:59:29 PM 43.0117 -94.1964 262° West 425 489 38,000  Level Minneapolis Center
Sun 04:00:31 PM 42.9992 -94.3522 264° West 420 483 38,000  Level Minneapolis Center
Sun 04:01:33 PM 42.9825 -94.5092 262° West 422 486 38,000  Level Minneapolis Center
Sun 04:02:35 PM 42.9628 -94.6689 260° West 417 480 38,000  Level Minneapolis Center
Sun 04:03:37 PM 42.9478 -94.8236 263° West 415 478 38,000  Level Minneapolis Center
Sun 04:04:38 PM 42.9339 -94.9472 261° West 413 475 38,000  Level Minneapolis Center
Sun 04:05:41 PM 42.9114 -95.1594 262° West 405 466 38,000  Level Minneapolis Center
Sun 04:06:43 PM 42.8942 -95.3114 261° West 406 467 38,000  Level Minneapolis Center
Sun 04:07:45 PM 42.8781 -95.4642 262° West 407 468 38,000  Level Minneapolis Center
Sun 04:08:59 PM 42.8603 -95.6161 261° West 407 468 38,000  Level Minneapolis Center
Sun 04:10:02 PM 42.8392 -95.7997 261° West 408 470 38,000  Level Minneapolis Center
Sun 04:11:04 PM 42.8225 -95.9522 262° West 408 470 38,000  Level Minneapolis Center
Sun 04:12:06 PM 42.8003 -96.1344 261° West 407 468 38,000  Level Minneapolis Center
Sun 04:13:08 PM 42.7822 -96.2869 261° West 407 468 38,000  Level Minneapolis Center
Sun 04:14:10 PM 42.7644 -96.4389 261° West 407 468 38,000  Level Minneapolis Center
Sun 04:15:24 PM 42.7472 -96.5892 261° West 403 464 38,000  Level Minneapolis Center
Sun 04:16:26 PM 42.7244 -96.7683 260° West 401 461 38,000  Level Minneapolis Center
Sun 04:17:41 PM 42.7056 -96.9169 260° West 400 460 38,000  Level Minneapolis Center
Sun 04:18:44 PM 42.6794 -97.1269 260° West 407 468 38,000  Level Minneapolis Center
Sun 04:19:46 PM 42.6608 -97.2781 261° West 409 471 38,000  Level Minneapolis Center
Sun 04:20:48 PM 42.6408 -97.4308 260° West 412 474 38,000  Level Minneapolis Center
Sun 04:22:02 PM 42.6206 -97.5831 260° West 410 472 38,000  Level Minneapolis Center
Sun 04:23:04 PM 42.5967 -97.7667 260° West 413 475 38,000  Level Minneapolis Center
Sun 04:24:06 PM 42.5731 -97.9461 260° West 410 472 38,000  Level Minneapolis Center
Sun 04:25:08 PM 42.5517 -98.0961 259° West 406 467 38,000  Level Minneapolis Center
Sun 04:26:22 PM 42.5319 -98.2450 260° West 405 466 38,000  Level Minneapolis Center
Sun 04:27:25 PM 42.5072 -98.4228 259° West 401 461 38,000  Level Minneapolis Center
Sun 04:28:27 PM 42.4864 -98.5697 259° West 399 459 38,000  Level Minneapolis Center
Sun 04:29:29 PM 42.4650 -98.7464 261° West 397 457 38,000  Level Minneapolis Center
Sun 04:30:31 PM 42.4497 -98.8944 262° West 398 458 38,000  Level Minneapolis Center
Sun 04:31:33 PM 42.4353 -99.0408 262° West 396 456 38,000  Level Minneapolis Center
Sun 04:32:35 PM 42.4194 -99.1892 262° West 397 457 38,000  Level Minneapolis Center
Sun 04:33:37 PM 42.4044 -99.3367 262° West 397 457 38,000  Level Minneapolis Center
Sun 04:34:31 PM 42.3886 -99.4842 262° West 396 456 38,000  Level Denver Center
Sun 04:35:33 PM 42.3733 -99.6322 262° West 398 458 38,000  Level Denver Center
Sun 04:36:35 PM 42.3564 -99.7917 262° West 394 453 38,000  Level Denver Center
Sun 04:37:36 PM 42.3528 -99.9344 268° West 398 458 38,000  Level Denver Center
Sun 04:38:38 PM 42.3503 -100.1000 269° West 397 457 38,000  Level Denver Center
Sun 04:39:40 PM 42.3472 -100.2433 268° West 398 458 38,000  Level Denver Center
Sun 04:40:42 PM 42.3444 -100.4083 269° West 395 455 38,000  Level Denver Center
Sun 04:41:44 PM 42.3422 -100.5500 269° West 394 453 38,000  Level Denver Center
Sun 04:42:45 PM 42.3383 -100.6908 268° West 394 453 38,000  Level Denver Center
Sun 04:43:47 PM 42.3350 -100.8542 268° West 391 450 38,000  Level Denver Center
Sun 04:44:49 PM 42.3314 -100.9950 268° West 393 452 38,000  Level Denver Center
Sun 04:45:51 PM 42.3267 -101.1586 268° West 392 451 38,000  Level Denver Center
Sun 04:46:53 PM 42.3228 -101.2989 268° West 391 450 38,000  Level Denver Center
Sun 04:47:55 PM 42.3183 -101.4619 268° West 391 450 38,000  Level Denver Center
Sun 04:48:57 PM 42.3153 -101.6003 268° West 387 445 38,000  Level Denver Center
Sun 04:49:59 PM 42.3083 -101.7639 267° West 391 450 38,000  Level Denver Center
Sun 04:51:01 PM 42.3039 -101.9053 268° West 384 442 38,000  Level Denver Center
Sun 04:52:03 PM 42.3000 -102.0425 268° West 384 442 38,000  Level Denver Center
Sun 04:53:04 PM 42.2947 -102.2033 268° West 384 442 38,000  Level Denver Center
Sun 04:54:06 PM 42.2889 -102.3425 267° West 387 445 38,000  Level Denver Center
Sun 04:55:08 PM 42.2817 -102.5050 267° West 391 450 38,000  Level Denver Center
Sun 04:56:10 PM 42.2772 -102.6442 268° West 388 447 38,000  Level Denver Center
Sun 04:57:12 PM 42.2700 -102.8050 267° West 385 443 38,000  Level Denver Center
Sun 04:58:14 PM 42.2642 -102.9436 267° West 386 444 38,000  Level Denver Center
Sun 04:59:16 PM 42.2567 -103.1072 267° West 394 453 38,000  Level Denver Center
Sun 05:00:18 PM 42.2519 -103.2464 267° West 390 449 38,000  Level Denver Center
Sun 05:01:20 PM 42.2436 -103.4117 266° West 395 455 38,000  Level Denver Center
Sun 05:02:22 PM 42.2369 -103.5533 266° West 395 455 38,000  Level Denver Center
Sun 05:03:24 PM 42.2306 -103.6942 267° West 393 452 38,000  Level Denver Center
Sun 05:04:26 PM 42.2214 -103.8619 266° West 400 460 38,000  Level Denver Center
Sun 05:05:28 PM 42.2147 -104.0033 266° West 395 455 38,000  Level Denver Center
Sun 05:06:30 PM 42.2058 -104.1681 266° West 392 451 38,000  Level Denver Center
Sun 05:07:32 PM 42.1986 -104.3081 266° West 390 449 38,000  Level Denver Center
Sun 05:08:34 PM 42.1886 -104.4728 265° West 391 450 38,000  Level Denver Center
Sun 05:09:36 PM 42.1811 -104.6131 266° West 392 451 38,000  Level Denver Center
Sun 05:10:37 PM 42.1733 -104.7561 266° West 397 457 38,000  Level Denver Center
Sun 05:11:39 PM 42.1633 -104.9244 265° West 400 460 38,000  Level Denver Center
Sun 05:12:41 PM 42.1544 -105.0678 265° West 400 460 38,000  Level Denver Center
Sun 05:13:43 PM 42.1447 -105.2347 266° West 399 459 38,000  Level Denver Center
Sun 05:14:45 PM 42.1353 -105.3789 265° West 402 463 38,000  Level Denver Center
Sun 05:15:47 PM 42.1242 -105.5464 265° West 402 463 38,000  Level Denver Center
Sun 05:17:19 PM 42.1106 -105.7619 265° West 400 460 38,000  Level Salt Lake Center
Sun 05:17:51 PM 42.1061 -105.8322 265° West 399 459 38,000  Level Denver Center
Sun 05:18:53 PM 42.0953 -105.9967 265° West 396 456 38,000  Level Denver Center
Sun 05:19:55 PM 42.0856 -106.1358 265° West 391 450 38,000  Level Denver Center
Sun 05:20:57 PM 42.0725 -106.2989 264° West 391 450 38,000  Level Denver Center
Sun 05:21:59 PM 42.0631 -106.4394 265° West 395 455 38,000  Level Denver Center
Sun 05:23:00 PM 42.0517 -106.5903 264° West 398 458 38,000  Level Denver Center
Sun 05:24:02 PM 42.0400 -106.7553 265° West 399 459 38,000  Level Denver Center
Sun 05:25:04 PM 42.0283 -106.8975 264° West 401 461 38,000  Level Denver Center
Sun 05:26:06 PM 42.0164 -107.0636 265° West 401 461 38,000  Level Denver Center
Sun 05:27:08 PM 42.0044 -107.2044 264° West 398 458 38,000  Level Denver Center
Sun 05:28:10 PM 41.9908 -107.3700 264° West 398 458 38,000  Level Denver Center
Sun 05:29:12 PM 41.9806 -107.5114 264° West 398 458 38,000  Level Denver Center
Sun 05:30:13 PM 41.9656 -107.6772 263° West 401 461 38,000  Level Denver Center
Sun 05:31:15 PM 41.9539 -107.8194 264° West 400 460 38,000  Level Denver Center
Sun 05:31:47 PM 41.9481 -107.8928 264° West 404 465 38,000  Level Salt Lake Center
Sun 05:32:49 PM 41.9325 -108.0597 263° West 406 467 38,000  Level Salt Lake Center
Sun 05:33:51 PM 41.9222 -108.2050 265° West 409 471 38,000  Level Salt Lake Center
Sun 05:34:53 PM 41.9064 -108.3739 263° West 410 472 38,000  Level Salt Lake Center
Sun 05:35:55 PM 41.8931 -108.5178 263° West 409 471 38,000  Level Salt Lake Center
Sun 05:36:57 PM 41.8767 -108.6861 263° West 409 471 38,000  Level Salt Lake Center
Sun 05:37:59 PM 41.8633 -108.8303 263° West 410 472 38,000  Level Salt Lake Center
Sun 05:39:01 PM 41.8481 -108.9975 263° West 408 470 38,000  Level Salt Lake Center
Sun 05:40:03 PM 41.8333 -109.1414 262° West 409 471 38,000  Level Salt Lake Center
Sun 05:41:05 PM 41.8167 -109.3100 263° West 411 473 38,000  Level Salt Lake Center
Sun 05:42:07 PM 41.8017 -109.4533 262° West 410 472 38,000 -581 Level Salt Lake Center
Sun 05:43:09 PM 41.7850 -109.6219 263° West 411 473 36,800 -968 Descending Salt Lake Center
Sun 05:44:11 PM 41.7694 -109.7694 262° West 418 481 36,000 -919 Descending Salt Lake Center
Sun 05:45:13 PM 41.7522 -109.9422 262° West 421 484 34,900 -968 Descending Salt Lake Center
Sun 05:46:15 PM 41.7364 -110.0911 262° West 424 488 34,000 -968 Descending Salt Lake Center
Sun 05:47:17 PM 41.7175 -110.2669 262° West 428 493 32,900 -968 Descending Salt Lake Center
Sun 05:48:19 PM 41.7011 -110.4186 262° West 431 496 32,000 -968 Descending Salt Lake Center
Sun 05:49:21 PM 41.7081 -110.5997 273° West 438 504 30,900 -968 Descending Salt Lake Center
Sun 05:50:23 PM 41.7183 -110.7511 275° West 429 494 30,000 -435 Descending Salt Lake Center
Sun 05:51:25 PM 41.7289 -110.9000 275° West 423 487 30,000  Level Salt Lake Center
Sun 05:52:27 PM 41.7397 -111.0794 275° West 422 486 30,000  Level Salt Lake Center
Sun 05:53:29 PM 41.7497 -111.2339 275° West 419 482 30,000  Level Salt Lake Center
Sun 05:54:31 PM 41.7608 -111.3894 276° West 422 486 30,000 -97 Level Salt Lake Center
Sun 05:55:33 PM 41.7703 -111.5450 275° West 422 486 29,800 -1,073 Descending Salt Lake Center
Sun 05:56:34 PM 41.7792 -111.6975 275° West 417 480 27,800 -2,244 Descending Salt Lake Center
Sun 05:57:36 PM 41.7889 -111.8753 274° West 402 463 25,200 -2,382 Descending Salt Lake Center
Sun 05:58:45 PM 41.7394 -112.0053 243° Southwest 382 440 22,600 -2,129 Descending Salt Lake Center
Sun 05:59:40 PM 41.6542 -112.0308 193° South 374 430 20,800 -1,846 Descending Salt Lake Center
Sun 06:00:42 PM 41.5528 -112.0469 187° South 369 425 19,000 -1,258 Descending Salt Lake Center
Sun 06:01:44 PM 41.4567 -112.0644 188° South 351 404 18,200 -968 Descending Salt Lake Center
Sun 06:02:46 PM 41.3436 -112.0878 189° South 346 398 17,000 -1,091 Descending Salt Lake Center
Sun 06:03:56 PM 41.2411 -112.1100 189° South 340 391 15,800 -968 Descending Salt Lake Center
Sun 06:04:50 PM 41.1614 -112.1278 190° South 332 382 15,000 -931 Descending Salt Lake Center
Sun 06:05:52 PM 41.0733 -112.1436 188° South 323 372 14,000 -1,113 Descending Salt Lake Center
Sun 06:06:54 PM 40.9839 -112.1267 172° South 326 375 12,700 -1,091 Descending Salt Lake Center
Sun 06:07:53 PM 40.8942 -112.1083 171° South 296 341 11,800 -756 Descending Salt Lake Center
Sun 06:08:53 PM 40.8200 -112.1022 176° South 244 281 11,200 -1,048 Descending Salt Lake Center
Sun 06:09:59 PM 40.7539 -112.0908 173° South 236 272 9,600 -1,138 Descending Salt Lake Center
Sun 06:10:49 PM 40.6944 -112.0881 178° South 238 274 9,000 -295 Descending Salt Lake Center
Sun 06:12:01 PM 40.6236 -112.0781 174° South 204 235 9,000 -441 Level Salt Lake Center
Sun 06:13:05 PM 40.6056 -112.0158 111° Southeast 208 239 8,000 -1,048 Descending Salt Lake Center
Sun 06:14:07 PM 40.6522 -111.9619 41° Northeast 210 242 6,800 -1,119 Descending Salt Lake Center
Sun 06:15:03 PM 40.7008 -111.9672 355° North 193 222 5,800 -1,027 Descending Salt Lake Center
Sun 06:15:58 PM 40.7403 -111.9708 356° North 160 184 4,900 -744 Descending Salt Lake Center
Sun 06:17:12 PM 40.7872 -111.9742 357° North 141 162 4,200 -568 Descending Salt Lake Center
Sun 06:19:00 PM 40.7833 -111.9667 355° North  Level FlightAware Approximate

Login

Don't have an account? Register now (free) for customized features, flight alerts, and more!